createdAt,value
2023-04-11T00:01:11.240Z,9.60
2023-04-11T00:03:44.160Z,9.60
2023-04-11T00:06:27.677Z,9.70
2023-04-11T00:08:31.120Z,9.70
2023-04-11T00:11:21.527Z,9.70
2023-04-11T00:13:55.940Z,9.60
2023-04-11T00:24:38.934Z,9.60
2023-04-11T00:38:49.194Z,9.50
2023-04-11T00:46:51.164Z,9.30
2023-04-11T00:49:09.008Z,9.30
2023-04-11T00:57:49.788Z,9.20
2023-04-11T01:03:55.772Z,9.20
2023-04-11T01:06:22.644Z,9.20
2023-04-11T01:11:48.189Z,9.10
2023-04-11T01:20:13.102Z,9.00
2023-04-11T01:26:01.859Z,9.00
2023-04-11T01:29:25.133Z,9.00
2023-04-11T01:39:03.104Z,9.00
2023-04-11T01:42:02.106Z,8.90
2023-04-11T01:47:20.187Z,8.80
2023-04-11T01:50:02.389Z,8.70
2023-04-11T01:52:37.678Z,8.70
2023-04-11T01:55:02.399Z,8.70
2023-04-11T01:58:02.140Z,8.70
2023-04-11T02:02:54.981Z,8.70
2023-04-11T02:08:12.146Z,8.70
2023-04-11T02:35:03.935Z,8.80
2023-04-11T02:41:50.970Z,8.70
2023-04-11T02:44:50.220Z,8.70
2023-04-11T02:49:51.874Z,8.70
2023-04-11T02:52:33.689Z,8.60
2023-04-11T02:54:51.672Z,8.60
2023-04-11T03:06:56.436Z,8.70
2023-04-11T03:09:31.466Z,8.70
2023-04-11T03:12:26.604Z,8.70
2023-04-11T03:14:46.334Z,8.80
2023-04-11T03:24:50.523Z,8.90
2023-04-11T03:31:02.898Z,9.00
2023-04-11T03:34:15.178Z,9.00
2023-04-11T03:36:22.443Z,9.00
2023-04-11T03:38:59.868Z,8.90
2023-04-11T04:03:57.592Z,8.80
2023-04-11T04:43:11.381Z,8.50
2023-04-11T04:45:18.479Z,8.60
2023-04-11T04:47:34.677Z,8.50
2023-04-11T04:49:44.123Z,8.60
2023-04-11T04:53:07.059Z,8.50
2023-04-11T04:55:14.475Z,8.50
2023-04-11T05:00:26.045Z,8.40
2023-04-11T05:06:25.171Z,8.30
2023-04-11T05:12:13.967Z,8.30
2023-04-11T05:22:12.648Z,8.50
2023-04-11T05:24:52.306Z,8.50
2023-04-11T05:29:21.984Z,8.40
2023-04-11T05:31:56.594Z,8.50
2023-04-11T05:34:59.016Z,8.50
2023-04-11T05:44:36.945Z,8.50
2023-04-11T05:47:12.037Z,8.60
2023-04-11T05:56:48.968Z,8.80
2023-04-11T06:15:30.603Z,9.50
2023-04-11T06:22:02.915Z,9.50
2023-04-11T07:43:54.655Z,11.00
2023-04-11T08:01:50.907Z,11.20
2023-04-11T08:04:35.531Z,11.20
2023-04-11T08:07:49.970Z,11.30
2023-04-11T08:10:55.759Z,11.40
2023-04-11T08:13:13.819Z,11.40
2023-04-11T08:37:19.268Z,11.90
2023-04-11T09:13:10.852Z,11.70
2023-04-11T09:15:45.603Z,11.70
2023-04-11T09:28:29.922Z,11.70
2023-04-11T09:31:11.567Z,11.90
2023-04-11T09:33:39.234Z,12.00
2023-04-11T09:35:49.661Z,12.10
2023-04-11T09:41:39.194Z,12.60
2023-04-11T09:49:38.827Z,12.60
2023-04-11T09:52:21.957Z,12.40
2023-04-11T10:04:34.987Z,12.90
2023-04-11T10:12:37.095Z,13.50
2023-04-11T10:42:23.224Z,10.90
2023-04-11T10:55:50.635Z,12.30
2023-04-11T11:04:03.177Z,12.60
2023-04-11T11:05:24.707Z,12.70
2023-04-11T11:15:11.830Z,13.10
2023-04-11T11:24:48.464Z,13.20
2023-04-11T11:30:23.728Z,13.20
2023-04-11T11:33:14.774Z,13.00
2023-04-11T11:45:56.824Z,12.70
2023-04-11T11:52:12.881Z,12.70
2023-04-11T11:54:16.542Z,12.60
2023-04-11T12:01:06.900Z,12.60
2023-04-11T12:04:00.626Z,12.70
2023-04-11T12:06:09.232Z,13.00
2023-04-11T12:08:15.192Z,13.10
2023-04-11T12:10:21.853Z,13.20
2023-04-11T12:12:26.355Z,13.30
2023-04-11T12:14:37.780Z,13.30
2023-04-11T12:16:41.119Z,13.40
2023-04-11T12:18:48.097Z,13.40
2023-04-11T12:20:55.290Z,13.60
2023-04-11T12:23:00.438Z,13.70
2023-04-11T12:25:14.179Z,13.80
2023-04-11T12:27:27.766Z,13.80
2023-04-11T12:29:44.292Z,13.90
2023-04-11T12:32:55.266Z,14.10
2023-04-11T12:35:02.932Z,14.40
2023-04-11T12:37:15.366Z,14.50
2023-04-11T12:39:49.433Z,14.70
2023-04-11T12:44:47.062Z,14.90
2023-04-11T12:50:18.036Z,15.00
2023-04-11T12:52:59.141Z,15.00
2023-04-11T12:55:27.487Z,14.90
2023-04-11T12:58:13.600Z,14.90
2023-04-11T13:00:53.276Z,15.20
2023-04-11T13:03:25.074Z,15.40
2023-04-11T13:11:16.298Z,15.60
2023-04-11T13:13:24.060Z,15.50
2023-04-11T13:15:41.156Z,15.30
2023-04-11T13:57:58.605Z,14.90
2023-04-11T14:17:32.399Z,15.10
2023-04-11T14:19:50.978Z,15.20
2023-04-11T14:22:01.573Z,15.60
2023-04-11T14:24:20.640Z,16.10
2023-04-11T14:26:39.400Z,16.30
2023-04-11T14:28:53.419Z,16.20
2023-04-11T14:31:07.145Z,16.20
2023-04-11T14:34:03.919Z,16.40
2023-04-11T14:37:00.534Z,16.70
2023-04-11T14:39:33.523Z,17.20
2023-04-11T14:41:49.522Z,17.20
2023-04-11T14:44:12.475Z,17.20
2023-04-11T14:49:31.490Z,16.50
2023-04-11T14:52:04.378Z,16.30
2023-04-11T14:54:22.813Z,16.00
2023-04-11T15:02:00.337Z,15.70
2023-04-11T15:04:11.858Z,15.40
2023-04-11T15:06:22.131Z,14.90
2023-04-11T15:08:43.055Z,14.70
2023-04-11T15:11:14.545Z,15.00
2023-04-11T15:16:15.922Z,15.40
2023-04-11T15:18:23.805Z,15.80
2023-04-11T15:20:27.021Z,16.00
2023-04-11T15:22:48.983Z,16.10
2023-04-11T15:24:53.644Z,16.30
2023-04-11T15:26:56.891Z,16.60
2023-04-11T15:28:59.999Z,16.80
2023-04-11T15:31:05.719Z,17.00
2023-04-11T15:33:12.914Z,17.10
2023-04-11T15:35:16.338Z,17.20
2023-04-11T15:37:19.716Z,17.30
2023-04-11T15:39:23.217Z,17.50
2023-04-11T15:41:36.037Z,17.60
2023-04-11T15:43:40.890Z,17.90
2023-04-11T15:45:45.212Z,17.80
2023-04-11T15:47:54.601Z,17.90
2023-04-11T15:49:58.923Z,18.10
2023-04-11T15:52:25.216Z,18.10
2023-04-11T15:54:35.745Z,18.10
2023-04-11T15:57:33.346Z,18.20
2023-04-11T16:00:11.725Z,17.90
2023-04-11T16:02:45.175Z,17.70
2023-04-11T16:07:48.065Z,17.90
2023-04-11T16:10:05.274Z,17.90
2023-04-11T16:12:51.309Z,18.00
2023-04-11T16:14:55.964Z,18.00
2023-04-11T16:17:23.458Z,17.60
2023-04-11T16:22:20.214Z,16.90
2023-04-11T16:25:37.342Z,16.70
2023-04-11T16:27:46.963Z,16.60
2023-04-11T16:29:56.275Z,16.30
2023-04-11T16:32:02.873Z,15.90
2023-04-11T16:34:28.344Z,15.70
2023-04-11T16:36:38.595Z,15.30
2023-04-11T16:38:52.361Z,15.30
2023-04-11T16:41:03.647Z,15.40
2023-04-11T16:43:34.662Z,15.30
2023-04-11T16:46:07.629Z,15.60
2023-04-11T16:48:23.600Z,16.20
2023-04-11T16:50:35.056Z,16.60
2023-04-11T16:52:46.431Z,16.90
2023-04-11T16:54:54.437Z,17.30
2023-04-11T16:57:35.553Z,17.00
2023-04-11T16:59:40.328Z,16.30
2023-04-11T17:01:48.486Z,16.10
2023-04-11T17:03:55.435Z,16.00
2023-04-11T17:06:03.122Z,15.80
2023-04-11T17:08:06.638Z,15.60
2023-04-11T17:10:13.476Z,15.20
2023-04-11T17:12:17.169Z,14.90
2023-04-11T17:14:22.072Z,14.70
2023-04-11T17:16:30.224Z,14.60
2023-04-11T17:20:57.022Z,14.20
2023-04-11T17:23:06.283Z,14.00
2023-04-11T17:25:24.196Z,14.00
2023-04-11T17:27:27.578Z,13.80
2023-04-11T17:29:36.890Z,13.70
2023-04-11T17:31:46.169Z,13.60
2023-04-11T17:33:55.822Z,13.50
2023-04-11T17:35:59.834Z,13.40
2023-04-11T17:38:03.348Z,13.30
2023-04-11T17:40:17.439Z,13.10
2023-04-11T17:42:29.383Z,13.10
2023-04-11T17:44:46.400Z,13.00
2023-04-11T17:47:06.775Z,12.90
2023-04-11T17:49:16.594Z,12.80
2023-04-11T17:51:58.877Z,12.80
2023-04-11T17:54:22.180Z,12.70
2023-04-11T17:56:51.326Z,12.60
2023-04-11T17:59:32.592Z,12.60
2023-04-11T18:02:08.015Z,12.50
2023-04-11T18:07:13.196Z,12.20
2023-04-11T18:13:25.927Z,12.00
2023-04-11T18:15:53.368Z,12.00
2023-04-11T18:19:01.685Z,11.90
2023-04-11T18:25:04.031Z,11.70
2023-04-11T18:27:20.602Z,11.60
2023-04-11T18:30:12.472Z,11.50
2023-04-11T18:32:49.773Z,11.30
2023-04-11T18:35:03.813Z,11.30
2023-04-11T18:37:14.102Z,11.10
2023-04-11T18:39:17.910Z,11.10
2023-04-11T18:41:26.595Z,11.00
2023-04-11T18:43:45.274Z,11.10
2023-04-11T18:45:56.219Z,11.10
2023-04-11T18:48:10.806Z,11.20
2023-04-11T18:50:17.481Z,11.20
2023-04-11T18:52:28.144Z,11.30
2023-04-11T18:54:58.669Z,11.30
2023-04-11T18:57:13.064Z,11.20
2023-04-11T18:59:42.010Z,11.20
2023-04-11T19:02:26.792Z,11.20
2023-04-11T19:05:03.250Z,11.10
2023-04-11T19:22:30.602Z,10.70
2023-04-11T19:42:26.405Z,10.40
2023-04-11T20:16:44.717Z,9.50
2023-04-11T20:20:39.929Z,9.40
2023-04-11T20:22:27.237Z,9.40
2023-04-11T20:25:33.251Z,9.30
2023-04-11T20:31:50.911Z,9.20
2023-04-11T20:34:15.868Z,9.00
2023-04-11T20:37:12.819Z,9.00
2023-04-11T20:57:59.464Z,8.70
2023-04-11T21:03:16.013Z,8.70
2023-04-11T21:14:17.395Z,8.60
2023-04-11T21:29:17.304Z,8.60
2023-04-11T21:35:23.378Z,8.50
2023-04-11T21:40:22.979Z,8.50
2023-04-11T21:46:41.192Z,8.60
2023-04-11T21:48:58.303Z,8.70
2023-04-11T21:54:49.409Z,8.80
2023-04-11T21:59:49.407Z,8.90
2023-04-11T22:07:39.148Z,8.90
2023-04-11T22:13:29.641Z,9.00
2023-04-11T22:16:11.469Z,9.00
2023-04-11T22:21:09.587Z,9.10
2023-04-11T22:23:44.637Z,9.10
2023-04-11T22:28:37.315Z,9.10
2023-04-11T22:30:49.916Z,9.10
2023-04-11T22:33:07.789Z,9.10
2023-04-11T22:35:42.374Z,9.10
2023-04-11T22:38:15.358Z,9.10
2023-04-11T22:40:49.259Z,9.10
2023-04-11T22:43:25.169Z,9.10
2023-04-11T22:45:43.308Z,9.10
2023-04-11T22:48:01.262Z,9.10
2023-04-11T22:50:19.097Z,9.10
2023-04-11T22:53:10.056Z,9.10
2023-04-11T22:55:43.951Z,9.10
2023-04-11T23:03:38.587Z,9.00
2023-04-11T23:06:27.468Z,9.00
2023-04-11T23:09:34.632Z,9.00
2023-04-11T23:12:36.792Z,9.00
2023-04-11T23:15:17.765Z,9.00
2023-04-11T23:17:27.362Z,8.90
2023-04-11T23:20:02.084Z,8.90
2023-04-11T23:22:25.044Z,8.90
2023-04-11T23:24:54.946Z,8.90
2023-04-11T23:27:27.198Z,8.90
2023-04-11T23:29:33.403Z,8.90
2023-04-11T23:31:47.099Z,8.90
2023-04-11T23:37:22.804Z,8.90
2023-04-11T23:39:32.583Z,8.80
2023-04-11T23:42:32.987Z,8.80
2023-04-11T23:44:43.398Z,8.80
2023-04-11T23:47:07.735Z,8.80
2023-04-11T23:50:08.256Z,8.80
2023-04-11T23:52:18.115Z,8.80
2023-04-11T23:54:44.327Z,8.70
2023-04-11T23:56:53.372Z,8.70
2023-04-11T23:59:12.622Z,8.70
